石垣 の空港の天気 - METARとTAF

石垣島 ( ROIG / ISG ) - 沖縄県石垣市石垣島
飛行場実況気象(Metar)
観測時間01/26 15:00 JST (01/26 06:00 UTC)
風向・風速南 7m/s
視程10km以上
天気現象弱いしゅう雨
少しの雲 雲底高度 240m
全天の4割程度の雲 雲底高度 370m
全天の8割程度の雲 雲底高度 3350m
気温23℃
湿度100%
気圧1007hPa
METARROIG 260600Z 19013KT 9999 -SHRA FEW008 SCT012 BKN110 23/23 Q1007
過去の天気等 Google飛行場航空写真 Wunderground天気予報

過去48時間のMETAR

飛行場予報(TAF)
発表時間: 1/26 14:15 JST (1/26 05:15 UTC)
予報対象時間: 26日15時 JST ~ 27日21時 JST
風向・風速南南西 7m/s
視程10km以上
少しの雲 雲底高度 240m
全天の8割程度の雲 雲底高度 460m
26日15時 JST ~ 26日18時 JST に一時的に
視程3000m
天気現象雷雨
少しの雲 雲底高度 150m
全天の8割程度の雲 雲底高度 300m
少しの積乱雲 雲底高度 610m
26日23時 JST ~ 27日1時 JST に一時的に
視程4000m
天気現象しゅう雨
少しの雲 雲底高度 180m
全天の8割程度の雲 雲底高度 300m
少しの積乱雲 雲底高度 610m
26日23時 JST ~ 27日1時 JST に徐々に
風向・風速北北西 7m/s
27日9時 JST ~ 27日15時 JST に一時的に
風向・風速北北西 8m/s 瞬間風速 14m/s
TAF ROIG 260515Z 2606/2712 20014KT 9999 FEW008 BKN015
TEMPO 2606/2609 3000 TSRA FEW005 BKN010 FEW020CB
TEMPO 2614/2616 4000 SHRA FEW006 BKN010 FEW020CB
BECMG 2614/2616 34013KT
TEMPO 2700/2706 34015G27KT
日本の空港のMETAR・TAFへのリンク

RJTT 東京国際空港
RJAA 新東京国際空港
RJBB 関西国際空港
RJOO 大阪空港
RJGG 中部国際空港
RJCC 新千歳空港
RJFF 福岡空港
ROAH 那覇空港


RJEC 旭川空港
RJCH 函館空港
RJCK 釧路空港
RJCM 女満別空港
RJCB 帯広空港
RJSA 青森空港
RJSS 仙台空港
RJSK 秋田空港
RJSF 福島空港
RJAH 茨城空港
RJSN 新潟空港
RJNT 富山空港
RJNK 小松飛行場
RJNS 静岡空港
RJOH 美保飛行場
RJOC 出雲空港
RJOB 岡山空港
RJOA 広島空港
RJOI 岩国飛行場
RJOT 高松空港
RJOM 松山空港
RJOK 高知空港
RJFR 北九州空港
RJFT 熊本空港
RJFU 長崎空港
RJFS 佐賀空港
RJFO 大分空港
RJFM 宮崎空港
RJFK 鹿児島空港
ROIG 石垣島空港
RJTY 横田飛行場
ROTM 普天間飛行場
RODN 嘉手納飛行場